createdAt,value
2018-04-26T00:00:05.331Z,74.56
2018-04-26T00:02:34.556Z,74.68
2018-04-26T00:05:02.901Z,73.87
2018-04-26T00:07:32.030Z,73.96
2018-04-26T00:10:00.380Z,73.84
2018-04-26T00:12:29.497Z,74.06
2018-04-26T00:14:57.800Z,73.96
2018-04-26T00:17:26.561Z,74.58
2018-04-26T00:19:54.873Z,74.19
2018-04-26T00:22:23.191Z,73.79
2018-04-26T00:24:51.718Z,73.94
2018-04-26T00:27:20.061Z,73.93
2018-04-26T00:29:49.159Z,74.19
2018-04-26T00:32:18.253Z,74.25
2018-04-26T00:34:47.380Z,74.40
2018-04-26T00:37:15.726Z,74.37
2018-04-26T00:39:44.310Z,74.09
2018-04-26T00:42:13.408Z,74.03
2018-04-26T00:44:42.506Z,74.73
2018-04-26T00:47:12.045Z,73.92
2018-04-26T00:49:40.358Z,73.67
2018-04-26T00:52:08.663Z,74.88
2018-04-26T00:54:37.780Z,75.49
2018-04-26T00:57:06.085Z,75.24
2018-04-26T00:59:34.450Z,74.58
2018-04-26T01:02:03.048Z,74.58
2018-04-26T01:04:31.383Z,74.68
2018-04-26T01:07:00.591Z,74.88
2018-04-26T01:09:29.287Z,74.32
2018-04-26T01:11:57.690Z,73.57
2018-04-26T01:14:26.003Z,74.06
2018-04-26T01:16:54.490Z,74.06
2018-04-26T01:19:23.431Z,74.50
2018-04-26T01:21:51.765Z,74.82
2018-04-26T01:24:20.389Z,75.00
2018-04-26T01:26:49.045Z,74.70
2018-04-26T01:29:18.256Z,73.96
2018-04-26T01:31:47.646Z,73.96
2018-04-26T01:34:16.726Z,73.27
2018-04-26T01:37:02.648Z,73.45
2018-04-26T01:39:31.723Z,73.65
2018-04-26T01:42:00.165Z,73.24
2018-04-26T01:44:28.514Z,73.57
2018-04-26T01:46:56.837Z,73.71
2018-04-26T01:49:25.270Z,73.47
2018-04-26T01:51:53.983Z,73.02
2018-04-26T01:54:22.276Z,74.63
2018-04-26T01:56:50.687Z,76.94
2018-04-26T01:59:19.187Z,78.17
2018-04-26T02:01:47.532Z,77.40
2018-04-26T02:04:15.867Z,76.98
2018-04-26T02:06:44.211Z,76.12
2018-04-26T02:09:12.567Z,76.60
2018-04-26T02:11:40.864Z,75.28
2018-04-26T02:14:09.679Z,75.02
2018-04-26T02:16:38.024Z,74.05
2018-04-26T02:19:07.158Z,73.65
2018-04-26T02:21:35.503Z,73.22
2018-04-26T02:24:03.843Z,73.05
2018-04-26T02:26:32.194Z,73.23
2018-04-26T02:29:00.531Z,73.77
2018-04-26T02:31:28.884Z,74.12
2018-04-26T02:33:57.208Z,75.12
2018-04-26T02:36:26.524Z,75.11
2018-04-26T02:38:54.851Z,74.50
2018-04-26T02:41:23.171Z,75.16
2018-04-26T02:43:51.680Z,75.03
2018-04-26T02:46:21.238Z,75.72
2018-04-26T02:48:49.573Z,74.83
2018-04-26T02:51:17.939Z,75.46
2018-04-26T02:53:46.425Z,74.88
2018-04-26T02:56:14.760Z,76.00
2018-04-26T02:58:43.312Z,75.87
2018-04-26T03:01:11.631Z,76.07
2018-04-26T03:03:40.316Z,75.89
2018-04-26T03:06:10.358Z,76.46
2018-04-26T03:08:39.453Z,76.39
2018-04-26T03:11:08.523Z,76.14
2018-04-26T03:13:36.960Z,77.02
2018-04-26T03:16:05.287Z,77.29
2018-04-26T03:18:34.468Z,76.14
2018-04-26T03:21:03.149Z,76.39
2018-04-26T03:23:32.033Z,77.63
2018-04-26T03:26:00.368Z,78.45
2018-04-26T03:28:28.746Z,78.59
2018-04-26T03:30:57.987Z,78.75
2018-04-26T03:33:26.235Z,78.18
2018-04-26T03:35:54.591Z,77.72
2018-04-26T03:38:23.702Z,77.88
2018-04-26T03:40:52.787Z,78.69
2018-04-26T03:43:22.134Z,78.65
2018-04-26T03:45:50.470Z,77.98
2018-04-26T03:48:18.779Z,77.92
2018-04-26T03:50:47.142Z,77.57
2018-04-26T03:53:15.472Z,79.27
2018-04-26T03:55:43.779Z,78.51
2018-04-26T03:58:12.125Z,77.24
2018-04-26T04:00:58.080Z,78.27
2018-04-26T04:03:44.351Z,79.73
2018-04-26T04:06:15.130Z,79.08
2018-04-26T04:08:43.458Z,78.07
2018-04-26T04:11:12.574Z,78.24
2018-04-26T04:13:41.089Z,78.46
2018-04-26T04:16:09.374Z,77.87
2018-04-26T04:18:37.889Z,78.33
2018-04-26T04:21:06.212Z,78.12
2018-04-26T04:23:34.987Z,78.09
2018-04-26T04:26:03.539Z,77.29
2018-04-26T04:28:31.878Z,77.88
2018-04-26T04:31:00.196Z,78.61
2018-04-26T04:33:28.539Z,79.34
2018-04-26T04:35:56.855Z,79.52
2018-04-26T04:38:25.210Z,78.63
2018-04-26T04:40:53.564Z,77.96
2018-04-26T04:43:22.444Z,77.70
2018-04-26T04:45:50.935Z,77.63
2018-04-26T04:48:19.731Z,77.50
2018-04-26T04:50:48.216Z,77.02
2018-04-26T04:53:16.563Z,77.57
2018-04-26T04:55:44.911Z,77.30
2018-04-26T04:58:13.227Z,78.09
2018-04-26T05:00:41.584Z,77.84
2018-04-26T05:03:10.756Z,78.18
2018-04-26T05:05:39.101Z,78.25
2018-04-26T05:08:07.702Z,79.32
2018-04-26T05:10:36.239Z,79.12
2018-04-26T05:13:05.436Z,78.46
2018-04-26T05:15:34.523Z,77.97
2018-04-26T05:18:02.978Z,78.24
2018-04-26T05:20:31.284Z,78.23
2018-04-26T05:23:00.368Z,78.65
2018-04-26T05:25:29.743Z,77.78
2018-04-26T05:27:58.855Z,77.26
2018-04-26T05:30:27.323Z,76.53
2018-04-26T05:32:56.056Z,77.72
2018-04-26T05:35:24.652Z,78.64
2018-04-26T05:37:52.986Z,78.40
2018-04-26T05:40:21.470Z,77.58
2018-04-26T05:42:49.802Z,78.23
2018-04-26T05:45:18.121Z,77.97
2018-04-26T05:47:46.651Z,78.26
2018-04-26T05:50:15.124Z,76.82
2018-04-26T05:52:44.234Z,76.85
2018-04-26T05:55:13.112Z,75.99
2018-04-26T05:57:41.432Z,76.56
2018-04-26T06:00:09.762Z,76.05
2018-04-26T06:02:38.858Z,75.52
2018-04-26T06:05:07.933Z,75.72
2018-04-26T06:07:36.254Z,75.76
2018-04-26T06:10:04.791Z,74.80
2018-04-26T06:12:33.105Z,74.69
2018-04-26T06:15:01.928Z,74.64
2018-04-26T06:17:30.633Z,75.31
2018-04-26T06:19:58.941Z,76.61
2018-04-26T06:22:27.446Z,76.71
2018-04-26T06:24:55.772Z,76.51
2018-04-26T06:27:24.210Z,75.66
2018-04-26T06:29:52.550Z,75.02
2018-04-26T06:32:20.956Z,74.09
2018-04-26T06:34:49.297Z,73.92
2018-04-26T06:37:17.604Z,76.16
2018-04-26T06:39:46.034Z,76.29
2018-04-26T06:42:14.439Z,75.39
2018-04-26T06:44:43.459Z,75.35
2018-04-26T06:47:12.559Z,74.71
2018-04-26T06:49:41.960Z,75.04
2018-04-26T06:52:10.384Z,74.89
2018-04-26T06:54:38.721Z,75.11
2018-04-26T06:57:07.081Z,74.61
2018-04-26T06:59:35.700Z,74.94
2018-04-26T07:02:04.559Z,74.68
2018-04-26T07:04:32.893Z,73.89
2018-04-26T07:07:01.391Z,73.62
2018-04-26T07:09:29.736Z,71.80
2018-04-26T07:11:58.166Z,72.19
2018-04-26T07:14:26.559Z,70.89
2018-04-26T07:16:54.912Z,71.10
2018-04-26T07:19:23.295Z,71.57
2018-04-26T07:21:51.667Z,71.14
2018-04-26T07:24:20.492Z,70.78
2018-04-26T07:26:49.110Z,71.40
2018-04-26T07:29:17.445Z,71.73
2018-04-26T07:31:45.794Z,71.44
2018-04-26T07:34:14.111Z,71.74
2018-04-26T07:36:42.417Z,70.93
2018-04-26T07:39:11.521Z,70.83
2018-04-26T07:41:39.867Z,70.41
2018-04-26T07:44:08.229Z,70.17
2018-04-26T07:46:37.041Z,71.04
2018-04-26T07:49:05.420Z,70.61
2018-04-26T07:51:34.518Z,70.29
2018-04-26T07:54:02.884Z,69.87
2018-04-26T07:56:31.992Z,70.05
2018-04-26T07:59:00.302Z,69.54
2018-04-26T08:01:28.702Z,70.47
2018-04-26T08:03:56.976Z,70.12
2018-04-26T08:06:25.277Z,69.30
2018-04-26T08:08:53.795Z,67.89
2018-04-26T08:11:22.119Z,67.26
2018-04-26T08:13:50.464Z,67.91
2018-04-26T08:16:19.577Z,69.57
2018-04-26T08:18:47.884Z,69.46
2018-04-26T08:21:16.307Z,68.63
2018-04-26T08:23:46.322Z,68.98
2018-04-26T08:26:14.651Z,70.20
2018-04-26T08:28:42.981Z,70.40
2018-04-26T08:31:12.486Z,70.38
2018-04-26T08:33:41.578Z,68.53
2018-04-26T08:36:09.887Z,64.98
2018-04-26T08:38:38.219Z,65.02
2018-04-26T08:41:06.673Z,65.84
2018-04-26T08:43:35.237Z,65.86
2018-04-26T08:46:03.667Z,65.37
2018-04-26T08:48:31.990Z,65.15
2018-04-26T08:51:00.637Z,65.31
2018-04-26T08:53:30.144Z,64.50
2018-04-26T08:56:00.109Z,62.29
2018-04-26T08:58:28.454Z,63.71
2018-04-26T09:00:57.609Z,64.24
2018-04-26T09:03:25.975Z,66.30
2018-04-26T09:05:54.288Z,66.53
2018-04-26T09:08:22.672Z,66.91
2018-04-26T09:10:51.973Z,67.09
2018-04-26T09:13:20.464Z,66.96
2018-04-26T09:15:49.235Z,67.17
2018-04-26T09:18:17.540Z,67.37
2018-04-26T09:20:46.642Z,68.13
2018-04-26T09:23:16.039Z,68.65
2018-04-26T09:25:44.366Z,67.87
2018-04-26T09:28:12.718Z,67.25
2018-04-26T09:30:41.899Z,67.45
2018-04-26T09:33:10.999Z,66.35
2018-04-26T09:35:39.351Z,65.44
2018-04-26T09:38:08.990Z,64.04
2018-04-26T09:40:38.107Z,63.54
2018-04-26T09:43:06.551Z,61.45
2018-04-26T09:45:35.486Z,61.54
2018-04-26T09:48:03.950Z,60.49
2018-04-26T09:50:32.268Z,59.40
2018-04-26T09:53:00.651Z,58.62
2018-04-26T09:55:29.025Z,57.55
2018-04-26T09:57:57.716Z,57.64
2018-04-26T10:00:29.647Z,58.15
2018-04-26T10:02:58.047Z,55.95
2018-04-26T10:05:31.854Z,53.02
2018-04-26T10:08:00.220Z,52.26
2018-04-26T10:10:28.865Z,51.18
2018-04-26T10:12:57.955Z,52.37
2018-04-26T10:15:26.248Z,53.51
2018-04-26T10:17:54.584Z,52.94
2018-04-26T10:20:23.407Z,53.29
2018-04-26T10:22:52.494Z,52.23
2018-04-26T10:25:22.411Z,51.04
2018-04-26T10:27:51.303Z,51.31
2018-04-26T10:30:20.016Z,52.16
2018-04-26T10:32:48.487Z,51.46
2018-04-26T10:35:17.695Z,50.50
2018-04-26T10:37:46.047Z,48.24
2018-04-26T10:40:14.342Z,48.34
2018-04-26T10:42:42.984Z,46.95
2018-04-26T10:45:11.301Z,46.65
2018-04-26T10:47:40.397Z,46.56
2018-04-26T10:50:08.853Z,44.91
2018-04-26T10:52:37.370Z,43.92
2018-04-26T10:55:05.697Z,43.18
2018-04-26T10:57:34.054Z,42.20
2018-04-26T11:00:02.457Z,42.13
2018-04-26T11:02:30.683Z,41.04
2018-04-26T11:04:59.311Z,42.34
2018-04-26T11:07:27.622Z,43.62
2018-04-26T11:09:55.956Z,43.30
2018-04-26T11:12:24.307Z,42.70
2018-04-26T11:14:53.425Z,43.24
2018-04-26T11:17:21.736Z,43.15
2018-04-26T11:19:50.069Z,44.77
2018-04-26T11:22:18.416Z,44.62
2018-04-26T11:24:46.796Z,44.62
2018-04-26T11:27:15.417Z,43.34
2018-04-26T11:29:44.064Z,44.29
2018-04-26T11:32:12.360Z,48.89
2018-04-26T11:34:41.444Z,49.72
2018-04-26T11:37:09.840Z,49.79
2018-04-26T11:39:38.155Z,49.95
2018-04-26T11:42:07.278Z,47.80
2018-04-26T11:44:35.604Z,48.42
2018-04-26T11:47:04.980Z,49.53
2018-04-26T11:49:33.879Z,50.49
2018-04-26T11:52:02.207Z,49.21
2018-04-26T11:54:30.532Z,49.79
2018-04-26T11:56:59.660Z,50.69
2018-04-26T11:59:27.966Z,51.17
2018-04-26T12:01:56.296Z,52.04
2018-04-26T12:04:25.445Z,51.41
2018-04-26T12:06:53.818Z,51.18
2018-04-26T12:09:22.130Z,51.01
2018-04-26T12:11:50.724Z,52.99
2018-04-26T12:14:19.848Z,54.51
2018-04-26T12:16:48.176Z,55.54
2018-04-26T12:19:16.539Z,55.87
2018-04-26T12:21:44.879Z,56.77
2018-04-26T12:24:14.010Z,56.93
2018-04-26T12:26:42.445Z,59.84
2018-04-26T12:29:11.604Z,61.42
2018-04-26T12:31:40.222Z,61.33
2018-04-26T12:34:09.519Z,59.44
2018-04-26T12:36:37.843Z,59.25
2018-04-26T12:39:06.152Z,57.67
2018-04-26T12:41:34.509Z,60.71
2018-04-26T12:44:02.848Z,61.76
2018-04-26T12:46:31.933Z,59.54
2018-04-26T12:49:01.046Z,60.23
2018-04-26T12:51:30.126Z,57.83
2018-04-26T12:53:58.456Z,56.67
2018-04-26T12:56:26.972Z,53.37
2018-04-26T12:58:55.287Z,52.80
2018-04-26T13:01:23.595Z,52.06
2018-04-26T13:03:51.984Z,51.23
2018-04-26T13:06:20.294Z,51.17
2018-04-26T13:08:48.638Z,51.69
2018-04-26T13:11:17.922Z,55.02
2018-04-26T13:13:46.218Z,59.61
2018-04-26T13:16:14.520Z,59.92
2018-04-26T13:18:43.241Z,61.76
2018-04-26T13:21:12.378Z,61.06
2018-04-26T13:23:40.763Z,62.07
2018-04-26T13:28:37.499Z,61.97
2018-04-26T13:31:05.795Z,60.73
2018-04-26T13:33:34.153Z,59.59
2018-04-26T13:36:02.503Z,58.04
2018-04-26T13:38:31.597Z,55.55
2018-04-26T13:41:00.528Z,54.97
2018-04-26T13:43:28.891Z,54.01
2018-04-26T13:45:57.220Z,53.62
2018-04-26T13:48:25.554Z,52.38
2018-04-26T13:50:53.880Z,51.45
2018-04-26T13:53:22.240Z,51.94
2018-04-26T13:55:50.580Z,53.30
2018-04-26T13:58:18.892Z,53.84
2018-04-26T14:00:47.303Z,55.44
2018-04-26T14:03:15.787Z,54.71
2018-04-26T14:05:44.139Z,54.21
2018-04-26T14:08:12.590Z,53.00
2018-04-26T14:10:41.088Z,51.89
2018-04-26T14:13:10.040Z,52.43
2018-04-26T14:15:39.130Z,52.05
2018-04-26T14:18:08.243Z,50.85
2018-04-26T14:20:36.596Z,51.50
2018-04-26T14:23:04.951Z,50.98
2018-04-26T14:25:33.615Z,49.37
2018-04-26T14:28:01.951Z,49.75
2018-04-26T14:30:36.706Z,49.20
2018-04-26T14:33:08.988Z,49.61
2018-04-26T14:35:37.594Z,48.61
2018-04-26T14:38:05.887Z,50.10
2018-04-26T14:40:34.193Z,50.04
2018-04-26T14:43:04.704Z,49.97
2018-04-26T14:45:32.999Z,50.14
2018-04-26T14:48:02.079Z,50.42
2018-04-26T14:50:30.434Z,50.02
2018-04-26T14:52:58.741Z,50.32
2018-04-26T14:55:27.091Z,51.16
2018-04-26T14:57:55.468Z,51.03
2018-04-26T15:00:23.975Z,51.96
2018-04-26T15:02:53.076Z,50.86
2018-04-26T15:05:22.556Z,49.64
2018-04-26T15:07:50.871Z,49.09
2018-04-26T15:10:19.180Z,48.78
2018-04-26T15:12:47.616Z,50.33
2018-04-26T15:15:16.637Z,51.03
2018-04-26T15:17:44.969Z,50.97
2018-04-26T15:20:13.331Z,51.54
2018-04-26T15:22:41.854Z,52.59
2018-04-26T15:25:11.026Z,52.91
2018-04-26T15:27:39.761Z,53.12
2018-04-26T15:30:08.076Z,52.88
2018-04-26T15:32:36.415Z,53.61
2018-04-26T15:35:04.847Z,54.81
2018-04-26T15:37:33.197Z,54.98
2018-04-26T15:40:01.565Z,55.34
2018-04-26T15:42:29.948Z,56.56
2018-04-26T15:44:58.283Z,57.73
2018-04-26T15:47:28.227Z,58.59
2018-04-26T15:49:56.644Z,59.46
2018-04-26T15:52:48.201Z,61.01
2018-04-26T15:55:34.132Z,61.84
2018-04-26T15:58:15.814Z,59.80
2018-04-26T16:01:07.343Z,61.42
2018-04-26T16:03:53.476Z,60.60
2018-04-26T16:06:40.437Z,58.23
2018-04-26T16:09:26.339Z,57.53
2018-04-26T16:15:59.096Z,58.78
2018-04-26T16:18:45.080Z,59.29
2018-04-26T16:21:34.065Z,59.13
2018-04-26T16:24:23.702Z,55.43
2018-04-26T16:27:15.403Z,54.66
2018-04-26T16:30:01.424Z,60.40
2018-04-26T16:32:47.579Z,63.88
2018-04-26T16:35:33.661Z,63.61
2018-04-26T16:38:21.072Z,65.40
2018-04-26T16:40:50.096Z,65.77
2018-04-26T16:43:19.188Z,64.83
2018-04-26T16:45:47.525Z,65.03
2018-04-26T16:48:15.885Z,65.52
2018-04-26T16:50:44.212Z,65.03
2018-04-26T16:53:12.535Z,64.13
2018-04-26T16:55:40.912Z,63.96
2018-04-26T16:58:09.341Z,61.75
2018-04-26T17:00:37.666Z,62.63
2018-04-26T17:03:06.399Z,60.41
2018-04-26T17:05:36.631Z,61.76
2018-04-26T17:08:04.945Z,60.68
2018-04-26T17:10:34.313Z,60.61
2018-04-26T17:13:02.828Z,61.88
2018-04-26T17:15:31.311Z,61.39
2018-04-26T17:18:00.440Z,62.27
2018-04-26T17:20:28.769Z,63.19
2018-04-26T17:22:57.860Z,63.70
2018-04-26T17:25:26.418Z,64.51
2018-04-26T17:27:54.800Z,65.21
2018-04-26T17:30:23.077Z,65.85
2018-04-26T17:32:51.553Z,66.98
2018-04-26T17:35:19.864Z,67.01
2018-04-26T17:37:49.104Z,67.21
2018-04-26T17:40:17.525Z,66.44
2018-04-26T17:42:45.847Z,67.26
2018-04-26T17:45:14.195Z,67.55
2018-04-26T17:47:42.769Z,67.71
2018-04-26T17:50:11.097Z,68.08
2018-04-26T17:52:39.425Z,67.67
2018-04-26T17:55:07.776Z,67.85
2018-04-26T17:57:36.087Z,67.79
2018-04-26T18:00:04.398Z,68.32
2018-04-26T18:02:32.754Z,68.25
2018-04-26T18:05:01.879Z,68.46
2018-04-26T18:07:30.222Z,67.45
2018-04-26T18:09:58.783Z,68.06
2018-04-26T18:12:27.868Z,68.64
2018-04-26T18:14:56.170Z,68.58
2018-04-26T18:17:24.501Z,68.68
2018-04-26T18:20:01.039Z,68.49
2018-04-26T18:22:21.159Z,68.13
2018-04-26T18:24:49.477Z,67.60
2018-04-26T18:27:17.819Z,68.93
2018-04-26T18:29:46.375Z,68.86
2018-04-26T18:32:14.884Z,68.84
2018-04-26T18:34:43.201Z,68.14
2018-04-26T18:37:11.548Z,69.10
2018-04-26T18:39:39.928Z,68.09
2018-04-26T18:42:08.279Z,68.62
2018-04-26T18:44:36.609Z,68.95
2018-04-26T18:47:04.982Z,69.30
2018-04-26T18:49:33.316Z,70.67
2018-04-26T18:52:01.648Z,70.57
2018-04-26T18:54:30.611Z,69.80
2018-04-26T18:56:59.052Z,69.90
2018-04-26T18:59:27.284Z,69.58
2018-04-26T19:01:55.656Z,69.06
2018-04-26T19:04:23.972Z,69.65
2018-04-26T19:06:52.375Z,70.09
2018-04-26T19:09:21.467Z,72.05
2018-04-26T19:11:49.833Z,72.20
2018-04-26T19:14:18.940Z,71.58
2018-04-26T19:16:47.404Z,71.94
2018-04-26T19:19:16.551Z,71.53
2018-04-26T19:21:44.910Z,71.24
2018-04-26T19:24:13.241Z,70.52
2018-04-26T19:26:41.666Z,70.08
2018-04-26T19:29:09.926Z,69.95
2018-04-26T19:31:38.292Z,69.94
2018-04-26T19:34:06.670Z,69.70
2018-04-26T19:36:35.026Z,70.18
2018-04-26T19:39:03.679Z,69.19
2018-04-26T19:41:32.025Z,70.32
2018-04-26T19:44:01.149Z,70.57
2018-04-26T19:46:29.512Z,70.68
2018-04-26T19:48:57.891Z,70.92
2018-04-26T19:51:27.047Z,71.16
2018-04-26T19:53:55.418Z,70.94
2018-04-26T19:56:23.771Z,70.90
2018-04-26T19:58:52.875Z,71.03
2018-04-26T20:01:21.396Z,71.28
2018-04-26T20:03:49.724Z,69.55
2018-04-26T20:06:18.102Z,69.94
2018-04-26T20:08:46.862Z,70.63
2018-04-26T20:11:15.135Z,70.66
2018-04-26T20:13:44.262Z,72.80
2018-04-26T20:16:12.660Z,73.93
2018-04-26T20:18:40.985Z,74.13
2018-04-26T20:21:09.444Z,75.00
2018-04-26T20:23:37.857Z,75.34
2018-04-26T20:26:06.991Z,74.89
2018-04-26T20:28:35.323Z,75.75
2018-04-26T20:31:04.435Z,75.72
2018-04-26T20:33:32.747Z,75.66
2018-04-26T20:36:01.070Z,75.53
2018-04-26T20:38:29.423Z,76.56
2018-04-26T20:40:58.537Z,76.62
2018-04-26T20:43:26.873Z,76.92
2018-04-26T20:45:55.523Z,77.32
2018-04-26T20:48:41.309Z,77.14
2018-04-26T20:51:10.428Z,76.66
2018-04-26T20:53:38.743Z,75.94
2018-04-26T20:56:07.107Z,76.01
2018-04-26T20:58:35.480Z,75.86
2018-04-26T21:01:03.787Z,75.70
2018-04-26T21:03:32.108Z,75.78
2018-04-26T21:06:01.346Z,75.95
2018-04-26T21:08:29.661Z,76.37
2018-04-26T21:10:57.979Z,76.18
2018-04-26T21:13:26.365Z,76.46
2018-04-26T21:15:54.695Z,76.11
2018-04-26T21:18:23.215Z,76.13
2018-04-26T21:20:51.564Z,75.65
2018-04-26T21:23:19.888Z,75.49
2018-04-26T21:25:48.188Z,75.41
2018-04-26T21:28:16.962Z,75.40
2018-04-26T21:30:45.300Z,75.79
2018-04-26T21:33:14.783Z,76.11
2018-04-26T21:35:43.226Z,76.27
2018-04-26T21:38:11.485Z,75.86
2018-04-26T21:40:39.821Z,76.44
2018-04-26T21:43:08.182Z,75.65
2018-04-26T21:45:36.526Z,75.70
2018-04-26T21:48:04.844Z,75.80
2018-04-26T21:50:38.776Z,75.62
2018-04-26T21:53:12.554Z,76.17
2018-04-26T21:55:46.479Z,76.97
2018-04-26T21:58:20.230Z,76.79
2018-04-26T22:00:53.945Z,77.23
2018-04-26T22:03:22.303Z,77.35
2018-04-26T22:05:50.643Z,78.08
2018-04-26T22:08:19.096Z,78.02
2018-04-26T22:10:47.428Z,79.03
2018-04-26T22:13:16.495Z,79.13
2018-04-26T22:15:44.830Z,78.36
2018-04-26T22:18:13.146Z,78.97
2018-04-26T22:20:41.492Z,79.32
2018-04-26T22:23:09.839Z,78.54
2018-04-26T22:25:38.173Z,77.95
2018-04-26T22:28:06.503Z,78.71
2018-04-26T22:30:35.555Z,78.16
2018-04-26T22:33:03.924Z,78.34
2018-04-26T22:35:32.457Z,78.72
2018-04-26T22:38:01.567Z,78.45
2018-04-26T22:40:30.138Z,77.98
2018-04-26T22:42:58.448Z,78.14
2018-04-26T22:45:27.082Z,77.75
2018-04-26T22:47:56.157Z,77.33
2018-04-26T22:50:24.483Z,78.45
2018-04-26T22:52:53.154Z,78.12
2018-04-26T22:55:22.228Z,78.54
2018-04-26T22:57:50.538Z,78.58
2018-04-26T23:00:18.874Z,78.48
2018-04-26T23:02:47.184Z,78.74
2018-04-26T23:05:16.277Z,78.06
2018-04-26T23:07:45.415Z,78.63
2018-04-26T23:10:13.965Z,78.84
2018-04-26T23:12:42.302Z,78.35
2018-04-26T23:15:10.727Z,78.75
2018-04-26T23:17:39.033Z,78.46
2018-04-26T23:20:07.353Z,77.89
2018-04-26T23:22:35.714Z,77.68
2018-04-26T23:25:04.039Z,77.89
2018-04-26T23:27:32.490Z,78.14
2018-04-26T23:30:00.977Z,78.00
2018-04-26T23:32:30.421Z,78.78
2018-04-26T23:34:58.857Z,78.75
2018-04-26T23:37:27.464Z,78.25
2018-04-26T23:39:56.741Z,77.49
2018-04-26T23:42:25.196Z,77.91
2018-04-26T23:44:53.699Z,78.50
2018-04-26T23:47:22.166Z,78.41
2018-04-26T23:49:50.643Z,78.10
2018-04-26T23:52:19.062Z,78.41
2018-04-26T23:54:48.295Z,77.86
2018-04-26T23:57:16.756Z,78.22
2018-04-26T23:59:45.626Z,78.08
